Terminal Aerodrome Forecast
Issued by NWS

Home | Current Version | Previous Version | Text Only | Print | Product List | Glossary On
Versions: 1 2 3 4 5 6 7 8 9 10 11 12 13
000
FTUS45 KABQ 220500
TAFROW
TAF
KROW 220538Z 2206/2306 17010KT P6SM BKN100 BKN150
     FM221800 19011KT P6SM VCSH SCT070 BKN100
     FM222100 20011G19KT P6SM VCTS SCT060CB BKN100
     FM230000 25010KT P6SM VCSH BKN080 BKN120
     FM230300 26006KT P6SM BKN080=

USA.gov is the U.S. government's official web portal to all federal, state and local government web resources and services.